createdAt,value
2022-09-18T00:07:31.775Z,70.50
2022-09-18T00:17:34.138Z,73.40
2022-09-18T00:27:36.260Z,76.40
2022-09-18T00:37:38.903Z,74.20
2022-09-18T00:47:49.655Z,74.50
2022-09-18T00:57:56.437Z,75.60
2022-09-18T01:08:03.542Z,74.80
2022-09-18T01:18:29.958Z,72.10
2022-09-18T01:28:35.894Z,71.20
2022-09-18T01:38:56.044Z,73.50
2022-09-18T01:49:12.036Z,71.10
2022-09-18T01:59:26.897Z,71.20
2022-09-18T02:09:38.472Z,71.30
2022-09-18T02:20:12.977Z,72.80
2022-09-18T02:30:16.055Z,77.60
2022-09-18T02:40:25.916Z,79.60
2022-09-18T02:50:53.053Z,84.00
2022-09-18T03:01:05.275Z,86.90
2022-09-18T03:11:09.219Z,84.40
2022-09-18T03:21:12.397Z,86.00
2022-09-18T03:31:17.793Z,85.90
2022-09-18T03:41:21.273Z,87.50
2022-09-18T03:51:25.038Z,89.70
2022-09-18T04:01:29.161Z,89.50
2022-09-18T04:11:57.754Z,90.10
2022-09-18T04:22:00.059Z,88.60
2022-09-18T04:32:02.797Z,85.60
2022-09-18T04:42:05.812Z,87.50
2022-09-18T04:52:08.120Z,84.40
2022-09-18T07:23:03.697Z,93.90
2022-09-18T08:01:25.611Z,78.90
2022-09-18T08:11:34.121Z,74.20
2022-09-18T08:21:58.477Z,68.80
2022-09-18T08:32:00.900Z,66.50
2022-09-18T08:42:25.773Z,58.40
2022-09-18T08:52:36.975Z,55.90
2022-09-18T09:03:05.539Z,55.00
2022-09-18T09:13:32.200Z,55.30
2022-09-18T09:23:58.038Z,56.30
2022-09-18T09:34:24.336Z,51.00
2022-09-18T09:44:42.221Z,49.00
2022-09-18T09:54:45.496Z,45.30
2022-09-18T10:05:03.022Z,44.00
2022-09-18T10:15:33.397Z,40.90
2022-09-18T10:25:53.538Z,41.50
2022-09-18T10:36:05.921Z,39.50
2022-09-18T10:46:09.927Z,37.90
2022-09-18T10:56:22.676Z,39.10
2022-09-18T11:06:32.638Z,35.20
2022-09-18T11:16:52.701Z,37.80
2022-09-18T11:27:02.163Z,37.00
2022-09-18T11:37:10.379Z,36.10
2022-09-18T11:47:23.620Z,36.70
2022-09-18T11:57:48.275Z,31.10
2022-09-18T12:08:07.881Z,33.40
2022-09-18T12:18:27.050Z,38.70
2022-09-18T12:28:50.784Z,39.50
2022-09-18T12:39:16.447Z,42.70
2022-09-18T12:49:33.121Z,38.70
2022-09-18T12:59:53.770Z,39.60
2022-09-18T13:10:07.543Z,38.90
2022-09-18T13:20:27.525Z,35.00
2022-09-18T13:30:32.880Z,35.90
2022-09-18T13:40:48.422Z,31.10
2022-09-18T13:51:11.442Z,34.30
2022-09-18T14:01:33.570Z,35.20
2022-09-18T14:11:37.258Z,34.70
2022-09-18T14:21:49.499Z,36.10
2022-09-18T14:31:55.422Z,31.60
